Hudson, Florida
Current Conditions -  °F | °C
As of 2:53 PM on Thursday 29 Jan 2015 (Local Time) from KBKV Reporting Station
Clear Clear  
Wind Chill: 69°   Ceiling: Unl
Heat Index: 69°   Visibility: 10mi
Dew Point: 43°   Wind: 0mph
Humidity: 39%   Direction: NA
Pressure: 30.23"   Gusts: NA
Location:  28.36°N, 82.69°W
Report Text: KBKV 291953Z 00000KT 10SM CLR 21/06 A3023 RMK AO2 SLP236 T02060061
Loading
Personal Weather Stations






























Interactive Weather Map New forecast layout! Learn more

10-Day Weather Forecast

Advertisements
Track Severe Weather on mobile